sensor_id;sensor_type;location;lat;lon;timestamp;P1;durP1;ratioP1;P2;durP2;ratioP2
26080;SDS011;13991;51.174;4.438;2023-04-03T00:01:24;14.20;;;5.23;;
26080;SDS011;13991;51.174;4.438;2023-04-03T00:03:50;12.40;;;5.47;;
26080;SDS011;13991;51.174;4.438;2023-04-03T00:06:16;16.83;;;5.70;;
26080;SDS011;13991;51.174;4.438;2023-04-03T00:08:42;20.23;;;5.50;;
26080;SDS011;13991;51.174;4.438;2023-04-03T00:11:08;17.67;;;5.83;;
26080;SDS011;13991;51.174;4.438;2023-04-03T00:13:35;22.70;;;6.73;;
26080;SDS011;13991;51.174;4.438;2023-04-03T00:16:01;17.23;;;6.20;;
26080;SDS011;13991;51.174;4.438;2023-04-03T00:18:28;18.53;;;5.93;;
26080;SDS011;13991;51.174;4.438;2023-04-03T00:20:55;21.33;;;5.40;;
26080;SDS011;13991;51.174;4.438;2023-04-03T00:23:21;13.37;;;5.67;;
26080;SDS011;13991;51.174;4.438;2023-04-03T00:25:48;19.73;;;5.97;;
26080;SDS011;13991;51.174;4.438;2023-04-03T00:28:14;14.87;;;4.93;;
26080;SDS011;13991;51.174;4.438;2023-04-03T00:30:40;14.17;;;4.90;;
26080;SDS011;13991;51.174;4.438;2023-04-03T00:33:06;9.77;;;4.90;;
26080;SDS011;13991;51.174;4.438;2023-04-03T00:35:32;15.23;;;5.37;;
26080;SDS011;13991;51.174;4.438;2023-04-03T00:37:59;11.50;;;5.00;;
26080;SDS011;13991;51.174;4.438;2023-04-03T00:40:25;12.83;;;4.67;;
26080;SDS011;13991;51.174;4.438;2023-04-03T00:42:54;14.43;;;6.30;;
26080;SDS011;13991;51.174;4.438;2023-04-03T00:48:09;11.17;;;4.90;;
26080;SDS011;13991;51.174;4.438;2023-04-03T00:50:39;12.43;;;5.20;;
26080;SDS011;13991;51.174;4.438;2023-04-03T00:53:09;13.17;;;5.73;;
26080;SDS011;13991;51.174;4.438;2023-04-03T00:55:39;13.87;;;5.00;;
26080;SDS011;13991;51.174;4.438;2023-04-03T00:58:06;15.87;;;5.50;;
26080;SDS011;13991;51.174;4.438;2023-04-03T01:00:33;11.23;;;4.73;;
26080;SDS011;13991;51.174;4.438;2023-04-03T01:03:00;11.07;;;4.80;;
26080;SDS011;13991;51.174;4.438;2023-04-03T01:05:26;13.73;;;4.80;;
26080;SDS011;13991;51.174;4.438;2023-04-03T01:07:52;20.97;;;5.20;;
26080;SDS011;13991;51.174;4.438;2023-04-03T01:10:18;15.67;;;5.30;;
26080;SDS011;13991;51.174;4.438;2023-04-03T01:12:48;11.07;;;4.43;;
26080;SDS011;13991;51.174;4.438;2023-04-03T01:15:17;13.40;;;5.07;;
26080;SDS011;13991;51.174;4.438;2023-04-03T01:17:54;11.87;;;4.83;;
26080;SDS011;13991;51.174;4.438;2023-04-03T01:23:08;27.43;;;4.60;;
26080;SDS011;13991;51.174;4.438;2023-04-03T01:25:44;9.33;;;4.80;;
26080;SDS011;13991;51.174;4.438;2023-04-03T01:28:19;13.77;;;4.87;;
26080;SDS011;13991;51.174;4.438;2023-04-03T01:33:49;11.17;;;3.97;;
26080;SDS011;13991;51.174;4.438;2023-04-03T01:36:19;16.67;;;4.97;;
26080;SDS011;13991;51.174;4.438;2023-04-03T01:38:50;16.17;;;4.93;;
26080;SDS011;13991;51.174;4.438;2023-04-03T01:41:17;14.67;;;5.33;;
26080;SDS011;13991;51.174;4.438;2023-04-03T01:43:43;13.83;;;5.10;;
26080;SDS011;13991;51.174;4.438;2023-04-03T01:46:09;10.53;;;4.80;;
26080;SDS011;13991;51.174;4.438;2023-04-03T01:48:35;11.57;;;4.97;;
26080;SDS011;13991;51.174;4.438;2023-04-03T01:51:01;17.53;;;5.37;;
26080;SDS011;13991;51.174;4.438;2023-04-03T01:53:26;13.43;;;4.27;;
26080;SDS011;13991;51.174;4.438;2023-04-03T01:55:52;12.57;;;4.83;;
26080;SDS011;13991;51.174;4.438;2023-04-03T01:58:18;17.90;;;4.93;;
26080;SDS011;13991;51.174;4.438;2023-04-03T02:00:43;12.17;;;5.00;;
26080;SDS011;13991;51.174;4.438;2023-04-03T02:03:09;15.30;;;5.20;;
26080;SDS011;13991;51.174;4.438;2023-04-03T02:05:35;12.83;;;5.83;;
26080;SDS011;13991;51.174;4.438;2023-04-03T02:08:01;10.87;;;4.93;;
26080;SDS011;13991;51.174;4.438;2023-04-03T02:10:26;22.70;;;5.60;;
26080;SDS011;13991;51.174;4.438;2023-04-03T02:12:52;19.57;;;5.63;;
26080;SDS011;13991;51.174;4.438;2023-04-03T02:15:18;17.33;;;6.07;;
26080;SDS011;13991;51.174;4.438;2023-04-03T02:17:43;13.43;;;5.57;;
26080;SDS011;13991;51.174;4.438;2023-04-03T02:20:09;15.90;;;6.03;;
26080;SDS011;13991;51.174;4.438;2023-04-03T02:22:35;12.50;;;5.37;;
26080;SDS011;13991;51.174;4.438;2023-04-03T02:25:01;14.33;;;5.60;;
26080;SDS011;13991;51.174;4.438;2023-04-03T02:27:27;12.70;;;5.60;;
26080;SDS011;13991;51.174;4.438;2023-04-03T02:29:53;14.67;;;5.80;;
26080;SDS011;13991;51.174;4.438;2023-04-03T02:32:18;11.57;;;5.50;;
26080;SDS011;13991;51.174;4.438;2023-04-03T02:34:44;14.33;;;5.33;;
26080;SDS011;13991;51.174;4.438;2023-04-03T02:37:10;13.77;;;5.33;;
26080;SDS011;13991;51.174;4.438;2023-04-03T02:39:36;16.30;;;6.17;;
26080;SDS011;13991;51.174;4.438;2023-04-03T02:42:02;15.37;;;5.60;;
26080;SDS011;13991;51.174;4.438;2023-04-03T02:44:28;15.13;;;5.97;;
26080;SDS011;13991;51.174;4.438;2023-04-03T02:46:53;13.77;;;5.40;;
26080;SDS011;13991;51.174;4.438;2023-04-03T02:49:19;13.87;;;4.87;;
26080;SDS011;13991;51.174;4.438;2023-04-03T02:51:45;11.40;;;5.37;;
26080;SDS011;13991;51.174;4.438;2023-04-03T02:54:10;15.67;;;5.03;;
26080;SDS011;13991;51.174;4.438;2023-04-03T02:56:36;15.90;;;4.90;;
26080;SDS011;13991;51.174;4.438;2023-04-03T02:59:02;12.90;;;5.13;;
26080;SDS011;13991;51.174;4.438;2023-04-03T03:01:28;12.17;;;4.90;;
26080;SDS011;13991;51.174;4.438;2023-04-03T03:03:56;17.47;;;5.70;;
26080;SDS011;13991;51.174;4.438;2023-04-03T03:06:22;14.80;;;4.70;;
26080;SDS011;13991;51.174;4.438;2023-04-03T03:08:48;15.73;;;6.33;;
26080;SDS011;13991;51.174;4.438;2023-04-03T03:11:13;15.77;;;5.87;;
26080;SDS011;13991;51.174;4.438;2023-04-03T03:13:39;16.53;;;5.07;;
26080;SDS011;13991;51.174;4.438;2023-04-03T03:16:05;15.20;;;5.20;;
26080;SDS011;13991;51.174;4.438;2023-04-03T03:18:31;17.40;;;5.93;;
26080;SDS011;13991;51.174;4.438;2023-04-03T03:20:59;13.50;;;5.07;;
26080;SDS011;13991;51.174;4.438;2023-04-03T03:23:26;17.53;;;5.60;;
26080;SDS011;13991;51.174;4.438;2023-04-03T03:25:57;13.47;;;4.90;;
26080;SDS011;13991;51.174;4.438;2023-04-03T03:28:24;11.43;;;5.43;;
26080;SDS011;13991;51.174;4.438;2023-04-03T03:30:50;12.37;;;5.50;;
26080;SDS011;13991;51.174;4.438;2023-04-03T03:33:16;19.80;;;6.20;;
26080;SDS011;13991;51.174;4.438;2023-04-03T03:35:42;20.70;;;5.82;;
26080;SDS011;13991;51.174;4.438;2023-04-03T03:38:10;11.43;;;5.10;;
26080;SDS011;13991;51.174;4.438;2023-04-03T03:40:36;18.30;;;5.30;;
26080;SDS011;13991;51.174;4.438;2023-04-03T03:43:02;12.10;;;5.60;;
26080;SDS011;13991;51.174;4.438;2023-04-03T03:45:28;18.60;;;5.67;;
26080;SDS011;13991;51.174;4.438;2023-04-03T03:47:54;13.37;;;5.00;;
26080;SDS011;13991;51.174;4.438;2023-04-03T03:50:20;13.80;;;5.53;;
26080;SDS011;13991;51.174;4.438;2023-04-03T03:52:46;14.70;;;5.63;;
26080;SDS011;13991;51.174;4.438;2023-04-03T03:55:11;12.50;;;5.73;;
26080;SDS011;13991;51.174;4.438;2023-04-03T03:57:37;14.53;;;5.80;;
26080;SDS011;13991;51.174;4.438;2023-04-03T04:00:04;13.03;;;5.60;;
26080;SDS011;13991;51.174;4.438;2023-04-03T04:02:32;16.53;;;5.53;;
26080;SDS011;13991;51.174;4.438;2023-04-03T04:04:58;14.97;;;6.00;;
26080;SDS011;13991;51.174;4.438;2023-04-03T04:07:23;17.47;;;6.10;;
26080;SDS011;13991;51.174;4.438;2023-04-03T04:09:49;15.30;;;5.83;;
26080;SDS011;13991;51.174;4.438;2023-04-03T04:12:15;21.43;;;5.87;;
26080;SDS011;13991;51.174;4.438;2023-04-03T04:14:41;11.80;;;5.47;;
26080;SDS011;13991;51.174;4.438;2023-04-03T04:17:06;17.57;;;5.80;;
26080;SDS011;13991;51.174;4.438;2023-04-03T04:19:32;17.37;;;6.07;;
26080;SDS011;13991;51.174;4.438;2023-04-03T04:21:58;13.03;;;6.43;;
26080;SDS011;13991;51.174;4.438;2023-04-03T04:24:24;17.10;;;5.83;;
26080;SDS011;13991;51.174;4.438;2023-04-03T04:26:50;16.20;;;6.97;;
26080;SDS011;13991;51.174;4.438;2023-04-03T04:29:15;12.30;;;5.67;;
26080;SDS011;13991;51.174;4.438;2023-04-03T04:31:41;17.60;;;6.23;;
26080;SDS011;13991;51.174;4.438;2023-04-03T04:34:07;20.13;;;5.67;;
26080;SDS011;13991;51.174;4.438;2023-04-03T04:36:32;20.37;;;6.57;;
26080;SDS011;13991;51.174;4.438;2023-04-03T04:38:58;13.03;;;6.40;;
26080;SDS011;13991;51.174;4.438;2023-04-03T04:41:24;13.23;;;6.60;;
26080;SDS011;13991;51.174;4.438;2023-04-03T04:43:50;16.13;;;6.57;;
26080;SDS011;13991;51.174;4.438;2023-04-03T04:46:16;22.27;;;6.37;;
26080;SDS011;13991;51.174;4.438;2023-04-03T04:48:43;13.30;;;6.23;;
26080;SDS011;13991;51.174;4.438;2023-04-03T04:51:09;19.37;;;6.60;;
26080;SDS011;13991;51.174;4.438;2023-04-03T04:53:36;18.53;;;7.37;;
26080;SDS011;13991;51.174;4.438;2023-04-03T04:56:01;18.73;;;7.23;;
26080;SDS011;13991;51.174;4.438;2023-04-03T04:58:28;18.47;;;6.40;;
26080;SDS011;13991;51.174;4.438;2023-04-03T05:01:00;15.33;;;6.77;;
26080;SDS011;13991;51.174;4.438;2023-04-03T05:03:32;14.47;;;6.37;;
26080;SDS011;13991;51.174;4.438;2023-04-03T05:05:58;23.23;;;7.27;;
26080;SDS011;13991;51.174;4.438;2023-04-03T05:08:25;16.23;;;6.70;;
26080;SDS011;13991;51.174;4.438;2023-04-03T05:10:51;10.63;;;6.13;;
26080;SDS011;13991;51.174;4.438;2023-04-03T05:13:18;21.37;;;7.57;;
26080;SDS011;13991;51.174;4.438;2023-04-03T05:15:45;16.10;;;6.20;;
26080;SDS011;13991;51.174;4.438;2023-04-03T05:18:11;17.30;;;7.00;;
26080;SDS011;13991;51.174;4.438;2023-04-03T05:20:37;15.57;;;7.03;;
26080;SDS011;13991;51.174;4.438;2023-04-03T05:23:03;16.67;;;7.13;;
26080;SDS011;13991;51.174;4.438;2023-04-03T05:25:29;20.07;;;7.07;;
26080;SDS011;13991;51.174;4.438;2023-04-03T05:27:54;16.67;;;6.83;;
26080;SDS011;13991;51.174;4.438;2023-04-03T05:30:30;14.97;;;6.67;;
26080;SDS011;13991;51.174;4.438;2023-04-03T05:32:59;11.67;;;6.23;;
26080;SDS011;13991;51.174;4.438;2023-04-03T05:35:25;18.63;;;7.53;;
26080;SDS011;13991;51.174;4.438;2023-04-03T05:37:51;14.77;;;6.90;;
26080;SDS011;13991;51.174;4.438;2023-04-03T05:40:16;17.03;;;6.80;;
26080;SDS011;13991;51.174;4.438;2023-04-03T05:42:43;20.50;;;7.43;;
26080;SDS011;13991;51.174;4.438;2023-04-03T05:45:09;19.53;;;7.70;;
26080;SDS011;13991;51.174;4.438;2023-04-03T05:47:41;24.00;;;7.70;;
26080;SDS011;13991;51.174;4.438;2023-04-03T05:50:07;20.97;;;8.33;;
26080;SDS011;13991;51.174;4.438;2023-04-03T05:52:36;22.57;;;7.70;;
26080;SDS011;13991;51.174;4.438;2023-04-03T05:55:04;15.93;;;6.83;;
26080;SDS011;13991;51.174;4.438;2023-04-03T05:57:31;22.67;;;7.53;;
26080;SDS011;13991;51.174;4.438;2023-04-03T05:59:56;15.10;;;6.50;;
26080;SDS011;13991;51.174;4.438;2023-04-03T06:02:23;14.93;;;7.03;;
26080;SDS011;13991;51.174;4.438;2023-04-03T06:04:50;13.37;;;6.43;;
26080;SDS011;13991;51.174;4.438;2023-04-03T06:07:21;15.60;;;6.27;;
26080;SDS011;13991;51.174;4.438;2023-04-03T06:09:48;14.23;;;6.93;;
26080;SDS011;13991;51.174;4.438;2023-04-03T06:12:16;16.37;;;6.20;;
26080;SDS011;13991;51.174;4.438;2023-04-03T06:14:42;25.57;;;7.67;;
26080;SDS011;13991;51.174;4.438;2023-04-03T06:17:08;14.27;;;6.50;;
26080;SDS011;13991;51.174;4.438;2023-04-03T06:19:34;23.80;;;6.87;;
26080;SDS011;13991;51.174;4.438;2023-04-03T06:22:00;16.80;;;6.70;;
26080;SDS011;13991;51.174;4.438;2023-04-03T06:24:25;13.27;;;6.27;;
26080;SDS011;13991;51.174;4.438;2023-04-03T06:26:52;13.23;;;6.30;;
26080;SDS011;13991;51.174;4.438;2023-04-03T06:29:21;13.87;;;6.13;;
26080;SDS011;13991;51.174;4.438;2023-04-03T06:31:47;14.87;;;6.47;;
26080;SDS011;13991;51.174;4.438;2023-04-03T06:34:14;15.87;;;6.33;;
26080;SDS011;13991;51.174;4.438;2023-04-03T06:36:40;21.87;;;5.83;;
26080;SDS011;13991;51.174;4.438;2023-04-03T06:39:08;13.27;;;5.97;;
26080;SDS011;13991;51.174;4.438;2023-04-03T06:41:38;15.87;;;6.17;;
26080;SDS011;13991;51.174;4.438;2023-04-03T06:44:04;18.00;;;5.47;;
26080;SDS011;13991;51.174;4.438;2023-04-03T06:46:30;12.93;;;5.10;;
26080;SDS011;13991;51.174;4.438;2023-04-03T06:48:55;22.60;;;5.20;;
26080;SDS011;13991;51.174;4.438;2023-04-03T06:51:25;11.17;;;4.80;;
26080;SDS011;13991;51.174;4.438;2023-04-03T06:53:53;9.33;;;4.63;;
26080;SDS011;13991;51.174;4.438;2023-04-03T06:56:22;13.37;;;5.07;;
26080;SDS011;13991;51.174;4.438;2023-04-03T06:58:50;10.90;;;4.60;;
26080;SDS011;13991;51.174;4.438;2023-04-03T07:01:17;16.50;;;4.93;;
26080;SDS011;13991;51.174;4.438;2023-04-03T07:03:46;14.37;;;4.83;;
26080;SDS011;13991;51.174;4.438;2023-04-03T07:06:15;11.70;;;4.43;;
26080;SDS011;13991;51.174;4.438;2023-04-03T07:08:44;11.83;;;4.37;;
26080;SDS011;13991;51.174;4.438;2023-04-03T07:11:51;11.03;;;4.17;;
26080;SDS011;13991;51.174;4.438;2023-04-03T07:14:16;12.67;;;4.30;;
26080;SDS011;13991;51.174;4.438;2023-04-03T07:16:42;13.83;;;4.37;;
26080;SDS011;13991;51.174;4.438;2023-04-03T07:19:08;11.53;;;4.07;;
26080;SDS011;13991;51.174;4.438;2023-04-03T07:21:34;15.20;;;3.90;;
26080;SDS011;13991;51.174;4.438;2023-04-03T07:24:00;10.50;;;3.93;;
26080;SDS011;13991;51.174;4.438;2023-04-03T07:26:26;15.33;;;3.90;;
26080;SDS011;13991;51.174;4.438;2023-04-03T07:28:56;16.97;;;4.07;;
26080;SDS011;13991;51.174;4.438;2023-04-03T07:31:22;22.97;;;4.17;;
26080;SDS011;13991;51.174;4.438;2023-04-03T07:33:48;14.57;;;4.37;;
26080;SDS011;13991;51.174;4.438;2023-04-03T07:36:15;15.17;;;3.37;;
26080;SDS011;13991;51.174;4.438;2023-04-03T07:38:47;12.53;;;4.00;;
26080;SDS011;13991;51.174;4.438;2023-04-03T07:41:14;14.80;;;3.60;;
26080;SDS011;13991;51.174;4.438;2023-04-03T07:43:43;10.00;;;3.50;;
26080;SDS011;13991;51.174;4.438;2023-04-03T07:46:10;13.33;;;3.50;;
26080;SDS011;13991;51.174;4.438;2023-04-03T07:48:36;11.67;;;3.23;;
26080;SDS011;13991;51.174;4.438;2023-04-03T07:51:04;10.30;;;3.20;;
26080;SDS011;13991;51.174;4.438;2023-04-03T07:53:30;15.33;;;3.20;;
26080;SDS011;13991;51.174;4.438;2023-04-03T07:55:57;7.10;;;3.00;;
26080;SDS011;13991;51.174;4.438;2023-04-03T07:58:24;8.23;;;2.30;;
26080;SDS011;13991;51.174;4.438;2023-04-03T08:00:51;11.10;;;3.03;;
26080;SDS011;13991;51.174;4.438;2023-04-03T08:03:24;10.10;;;2.47;;
26080;SDS011;13991;51.174;4.438;2023-04-03T08:05:50;15.27;;;2.60;;
26080;SDS011;13991;51.174;4.438;2023-04-03T08:08:17;12.57;;;2.73;;
26080;SDS011;13991;51.174;4.438;2023-04-03T08:10:48;15.93;;;3.00;;
26080;SDS011;13991;51.174;4.438;2023-04-03T08:13:18;9.87;;;3.63;;
26080;SDS011;13991;51.174;4.438;2023-04-03T08:15:44;8.83;;;2.70;;
26080;SDS011;13991;51.174;4.438;2023-04-03T08:18:14;12.40;;;2.53;;
26080;SDS011;13991;51.174;4.438;2023-04-03T08:20:41;10.60;;;2.53;;
26080;SDS011;13991;51.174;4.438;2023-04-03T08:23:12;10.27;;;3.00;;
26080;SDS011;13991;51.174;4.438;2023-04-03T08:25:42;7.63;;;2.27;;
26080;SDS011;13991;51.174;4.438;2023-04-03T08:28:09;8.43;;;2.40;;
26080;SDS011;13991;51.174;4.438;2023-04-03T08:30:38;11.00;;;2.43;;
26080;SDS011;13991;51.174;4.438;2023-04-03T08:33:05;11.90;;;2.97;;
26080;SDS011;13991;51.174;4.438;2023-04-03T08:35:31;9.77;;;2.73;;
26080;SDS011;13991;51.174;4.438;2023-04-03T08:37:57;7.00;;;2.33;;
26080;SDS011;13991;51.174;4.438;2023-04-03T08:40:23;15.63;;;2.73;;
26080;SDS011;13991;51.174;4.438;2023-04-03T08:45:50;10.07;;;1.70;;
26080;SDS011;13991;51.174;4.438;2023-04-03T08:50:47;9.73;;;2.67;;
26080;SDS011;13991;51.174;4.438;2023-04-03T08:53:20;12.47;;;2.20;;
26080;SDS011;13991;51.174;4.438;2023-04-03T08:55:50;5.93;;;1.73;;
26080;SDS011;13991;51.174;4.438;2023-04-03T08:58:21;11.00;;;2.13;;
26080;SDS011;13991;51.174;4.438;2023-04-03T09:00:58;7.17;;;1.47;;
26080;SDS011;13991;51.174;4.438;2023-04-03T09:03:28;17.87;;;2.43;;
26080;SDS011;13991;51.174;4.438;2023-04-03T09:11:05;14.10;;;2.90;;
26080;SDS011;13991;51.174;4.438;2023-04-03T09:16:04;6.13;;;1.50;;
26080;SDS011;13991;51.174;4.438;2023-04-03T09:18:54;9.63;;;1.80;;
26080;SDS011;13991;51.174;4.438;2023-04-03T09:21:42;7.03;;;1.50;;
26080;SDS011;13991;51.174;4.438;2023-04-03T09:24:09;7.03;;;1.63;;
26080;SDS011;13991;51.174;4.438;2023-04-03T09:26:44;10.87;;;1.67;;
26080;SDS011;13991;51.174;4.438;2023-04-03T09:29:14;10.10;;;1.67;;
26080;SDS011;13991;51.174;4.438;2023-04-03T09:31:46;4.40;;;1.60;;
26080;SDS011;13991;51.174;4.438;2023-04-03T09:34:20;14.57;;;1.47;;
26080;SDS011;13991;51.174;4.438;2023-04-03T09:36:58;9.43;;;1.67;;
26080;SDS011;13991;51.174;4.438;2023-04-03T09:39:31;11.13;;;2.03;;
26080;SDS011;13991;51.174;4.438;2023-04-03T09:42:15;10.37;;;1.90;;
26080;SDS011;13991;51.174;4.438;2023-04-03T09:44:52;5.43;;;1.50;;
26080;SDS011;13991;51.174;4.438;2023-04-03T09:47:34;16.83;;;2.27;;
26080;SDS011;13991;51.174;4.438;2023-04-03T09:52:39;10.30;;;1.67;;
26080;SDS011;13991;51.174;4.438;2023-04-03T09:57:40;7.10;;;1.40;;
26080;SDS011;13991;51.174;4.438;2023-04-03T10:00:10;8.17;;;1.33;;
26080;SDS011;13991;51.174;4.438;2023-04-03T10:02:55;6.83;;;1.50;;
26080;SDS011;13991;51.174;4.438;2023-04-03T10:05:41;7.40;;;1.70;;
26080;SDS011;13991;51.174;4.438;2023-04-03T10:10:32;8.53;;;1.23;;
26080;SDS011;13991;51.174;4.438;2023-04-03T10:13:12;8.60;;;1.47;;
26080;SDS011;13991;51.174;4.438;2023-04-03T10:15:45;3.73;;;1.27;;
26080;SDS011;13991;51.174;4.438;2023-04-03T10:20:54;3.23;;;1.40;;
26080;SDS011;13991;51.174;4.438;2023-04-03T10:23:49;7.93;;;1.60;;
26080;SDS011;13991;51.174;4.438;2023-04-03T10:29:35;3.93;;;1.37;;
26080;SDS011;13991;51.174;4.438;2023-04-03T10:35:39;2.67;;;0.77;;
26080;SDS011;13991;51.174;4.438;2023-04-03T10:37:55;3.47;;;0.87;;
26080;SDS011;13991;51.174;4.438;2023-04-03T10:40:29;6.10;;;1.10;;
26080;SDS011;13991;51.174;4.438;2023-04-03T10:46:19;3.93;;;0.80;;
26080;SDS011;13991;51.174;4.438;2023-04-03T10:51:41;2.93;;;1.10;;
26080;SDS011;13991;51.174;4.438;2023-04-03T10:54:25;7.93;;;1.23;;
26080;SDS011;13991;51.174;4.438;2023-04-03T10:57:04;4.97;;;1.50;;
26080;SDS011;13991;51.174;4.438;2023-04-03T10:59:49;7.57;;;1.37;;
26080;SDS011;13991;51.174;4.438;2023-04-03T11:04:53;6.20;;;1.20;;
26080;SDS011;13991;51.174;4.438;2023-04-03T11:07:28;3.13;;;1.00;;
26080;SDS011;13991;51.174;4.438;2023-04-03T11:10:13;4.17;;;0.90;;
26080;SDS011;13991;51.174;4.438;2023-04-03T11:12:49;3.20;;;0.90;;
26080;SDS011;13991;51.174;4.438;2023-04-03T11:15:21;5.73;;;0.93;;
26080;SDS011;13991;51.174;4.438;2023-04-03T11:22:53;2.67;;;0.73;;
26080;SDS011;13991;51.174;4.438;2023-04-03T11:25:24;3.87;;;1.27;;
26080;SDS011;13991;51.174;4.438;2023-04-03T11:35:53;3.20;;;0.70;;
26080;SDS011;13991;51.174;4.438;2023-04-03T11:38:27;3.33;;;0.60;;
26080;SDS011;13991;51.174;4.438;2023-04-03T11:40:59;4.60;;;0.93;;
26080;SDS011;13991;51.174;4.438;2023-04-03T11:43:27;2.07;;;0.70;;
26080;SDS011;13991;51.174;4.438;2023-04-03T11:46:03;2.30;;;0.97;;
26080;SDS011;13991;51.174;4.438;2023-04-03T11:50:57;5.57;;;0.60;;
26080;SDS011;13991;51.174;4.438;2023-04-03T11:53:41;1.53;;;0.50;;
26080;SDS011;13991;51.174;4.438;2023-04-03T12:04:15;1.67;;;0.57;;
26080;SDS011;13991;51.174;4.438;2023-04-03T12:09:25;1.80;;;0.60;;
26080;SDS011;13991;51.174;4.438;2023-04-03T12:11:56;3.17;;;0.63;;
26080;SDS011;13991;51.174;4.438;2023-04-03T12:14:24;3.67;;;0.87;;
26080;SDS011;13991;51.174;4.438;2023-04-03T12:16:50;2.20;;;0.60;;
26080;SDS011;13991;51.174;4.438;2023-04-03T12:22:12;2.40;;;0.50;;
26080;SDS011;13991;51.174;4.438;2023-04-03T12:24:42;2.70;;;0.80;;
26080;SDS011;13991;51.174;4.438;2023-04-03T12:45:56;2.30;;;0.60;;
26080;SDS011;13991;51.174;4.438;2023-04-03T12:48:53;2.03;;;0.60;;
26080;SDS011;13991;51.174;4.438;2023-04-03T12:54:13;2.63;;;0.60;;
26080;SDS011;13991;51.174;4.438;2023-04-03T12:56:52;5.13;;;0.60;;
26080;SDS011;13991;51.174;4.438;2023-04-03T12:59:43;2.17;;;0.80;;
26080;SDS011;13991;51.174;4.438;2023-04-03T13:02:20;10.43;;;1.20;;
26080;SDS011;13991;51.174;4.438;2023-04-03T13:04:53;6.50;;;1.23;;
26080;SDS011;13991;51.174;4.438;2023-04-03T13:10:18;5.10;;;0.70;;
26080;SDS011;13991;51.174;4.438;2023-04-03T13:12:52;3.43;;;1.00;;
26080;SDS011;13991;51.174;4.438;2023-04-03T13:17:53;5.13;;;0.80;;
26080;SDS011;13991;51.174;4.438;2023-04-03T13:20:20;5.10;;;1.00;;
26080;SDS011;13991;51.174;4.438;2023-04-03T13:22:55;2.40;;;0.80;;
26080;SDS011;13991;51.174;4.438;2023-04-03T13:25:31;8.30;;;0.87;;
26080;SDS011;13991;51.174;4.438;2023-04-03T13:28:00;4.37;;;1.00;;
26080;SDS011;13991;51.174;4.438;2023-04-03T13:30:30;4.40;;;0.87;;
26080;SDS011;13991;51.174;4.438;2023-04-03T13:33:02;3.20;;;0.60;;
26080;SDS011;13991;51.174;4.438;2023-04-03T13:35:45;3.70;;;1.17;;
26080;SDS011;13991;51.174;4.438;2023-04-03T13:40:53;4.57;;;0.73;;
26080;SDS011;13991;51.174;4.438;2023-04-03T13:43:22;4.03;;;1.20;;
26080;SDS011;13991;51.174;4.438;2023-04-03T13:48:44;4.70;;;1.00;;
26080;SDS011;13991;51.174;4.438;2023-04-03T13:53:48;3.80;;;1.40;;
26080;SDS011;13991;51.174;4.438;2023-04-03T13:56:33;3.47;;;1.17;;
26080;SDS011;13991;51.174;4.438;2023-04-03T13:59:05;1.53;;;0.70;;
26080;SDS011;13991;51.174;4.438;2023-04-03T14:01:55;3.70;;;0.80;;
26080;SDS011;13991;51.174;4.438;2023-04-03T14:07:02;2.20;;;0.83;;
26080;SDS011;13991;51.174;4.438;2023-04-03T14:09:28;1.53;;;0.60;;
26080;SDS011;13991;51.174;4.438;2023-04-03T14:11:57;4.07;;;1.20;;
26080;SDS011;13991;51.174;4.438;2023-04-03T14:14:30;13.90;;;3.33;;
26080;SDS011;13991;51.174;4.438;2023-04-03T14:16:59;5.83;;;1.10;;
26080;SDS011;13991;51.174;4.438;2023-04-03T14:19:32;3.97;;;0.60;;
26080;SDS011;13991;51.174;4.438;2023-04-03T14:22:00;12.77;;;3.60;;
26080;SDS011;13991;51.174;4.438;2023-04-03T14:24:31;2.80;;;0.70;;
26080;SDS011;13991;51.174;4.438;2023-04-03T14:26:57;7.93;;;1.20;;
26080;SDS011;13991;51.174;4.438;2023-04-03T14:29:23;2.43;;;0.90;;
26080;SDS011;13991;51.174;4.438;2023-04-03T14:31:49;10.80;;;0.50;;
26080;SDS011;13991;51.174;4.438;2023-04-03T14:34:15;2.53;;;0.90;;
26080;SDS011;13991;51.174;4.438;2023-04-03T14:36:42;2.70;;;0.70;;
26080;SDS011;13991;51.174;4.438;2023-04-03T14:39:16;4.30;;;0.60;;
26080;SDS011;13991;51.174;4.438;2023-04-03T14:41:43;5.30;;;1.30;;
26080;SDS011;13991;51.174;4.438;2023-04-03T14:44:10;3.17;;;1.27;;
26080;SDS011;13991;51.174;4.438;2023-04-03T14:46:36;7.13;;;1.07;;
26080;SDS011;13991;51.174;4.438;2023-04-03T14:49:13;4.53;;;0.63;;
26080;SDS011;13991;51.174;4.438;2023-04-03T14:51:43;1.37;;;0.60;;
26080;SDS011;13991;51.174;4.438;2023-04-03T14:54:13;4.53;;;0.70;;
26080;SDS011;13991;51.174;4.438;2023-04-03T14:56:41;2.97;;;0.70;;
26080;SDS011;13991;51.174;4.438;2023-04-03T14:59:14;2.50;;;0.83;;
26080;SDS011;13991;51.174;4.438;2023-04-03T15:01:42;7.43;;;1.57;;
26080;SDS011;13991;51.174;4.438;2023-04-03T15:04:14;4.20;;;0.87;;
26080;SDS011;13991;51.174;4.438;2023-04-03T15:06:41;6.83;;;1.07;;
26080;SDS011;13991;51.174;4.438;2023-04-03T15:09:14;1.40;;;0.60;;
26080;SDS011;13991;51.174;4.438;2023-04-03T15:11:51;7.50;;;0.80;;
26080;SDS011;13991;51.174;4.438;2023-04-03T15:14:18;1.93;;;0.50;;
26080;SDS011;13991;51.174;4.438;2023-04-03T15:16:44;3.90;;;0.70;;
26080;SDS011;13991;51.174;4.438;2023-04-03T15:19:10;2.33;;;0.70;;
26080;SDS011;13991;51.174;4.438;2023-04-03T15:21:37;3.10;;;0.90;;
26080;SDS011;13991;51.174;4.438;2023-04-03T15:24:03;1.23;;;0.67;;
26080;SDS011;13991;51.174;4.438;2023-04-03T15:26:29;6.33;;;1.00;;
26080;SDS011;13991;51.174;4.438;2023-04-03T15:28:56;9.10;;;1.00;;
26080;SDS011;13991;51.174;4.438;2023-04-03T15:31:22;5.80;;;0.77;;
26080;SDS011;13991;51.174;4.438;2023-04-03T15:33:47;6.37;;;0.70;;
26080;SDS011;13991;51.174;4.438;2023-04-03T15:36:13;4.03;;;1.10;;
26080;SDS011;13991;51.174;4.438;2023-04-03T15:38:39;5.70;;;0.73;;
26080;SDS011;13991;51.174;4.438;2023-04-03T15:41:04;3.23;;;0.97;;
26080;SDS011;13991;51.174;4.438;2023-04-03T15:43:30;1.10;;;0.70;;
26080;SDS011;13991;51.174;4.438;2023-04-03T15:45:58;2.97;;;0.47;;
26080;SDS011;13991;51.174;4.438;2023-04-03T15:48:26;2.10;;;0.80;;
26080;SDS011;13991;51.174;4.438;2023-04-03T15:50:52;3.53;;;1.30;;
26080;SDS011;13991;51.174;4.438;2023-04-03T15:53:18;6.23;;;1.10;;
26080;SDS011;13991;51.174;4.438;2023-04-03T15:55:44;3.37;;;0.77;;
26080;SDS011;13991;51.174;4.438;2023-04-03T15:58:09;8.40;;;1.10;;
26080;SDS011;13991;51.174;4.438;2023-04-03T16:00:35;3.03;;;1.13;;
26080;SDS011;13991;51.174;4.438;2023-04-03T16:03:04;7.60;;;1.00;;
26080;SDS011;13991;51.174;4.438;2023-04-03T16:05:41;6.17;;;0.97;;
26080;SDS011;13991;51.174;4.438;2023-04-03T16:08:08;8.63;;;1.53;;
26080;SDS011;13991;51.174;4.438;2023-04-03T16:10:34;4.43;;;1.00;;
26080;SDS011;13991;51.174;4.438;2023-04-03T16:13:01;8.37;;;1.17;;
26080;SDS011;13991;51.174;4.438;2023-04-03T16:15:28;6.40;;;1.00;;
26080;SDS011;13991;51.174;4.438;2023-04-03T16:17:55;3.67;;;0.90;;
26080;SDS011;13991;51.174;4.438;2023-04-03T16:20:23;2.23;;;0.87;;
26080;SDS011;13991;51.174;4.438;2023-04-03T16:22:49;5.17;;;1.00;;
26080;SDS011;13991;51.174;4.438;2023-04-03T16:25:15;4.17;;;1.50;;
26080;SDS011;13991;51.174;4.438;2023-04-03T16:27:40;10.73;;;0.97;;
26080;SDS011;13991;51.174;4.438;2023-04-03T16:30:06;3.90;;;0.87;;
26080;SDS011;13991;51.174;4.438;2023-04-03T16:32:33;5.57;;;1.20;;
26080;SDS011;13991;51.174;4.438;2023-04-03T16:35:00;4.83;;;1.00;;
26080;SDS011;13991;51.174;4.438;2023-04-03T16:37:26;5.07;;;1.00;;
26080;SDS011;13991;51.174;4.438;2023-04-03T16:39:52;3.63;;;1.03;;
26080;SDS011;13991;51.174;4.438;2023-04-03T16:42:17;3.53;;;0.80;;
26080;SDS011;13991;51.174;4.438;2023-04-03T16:44:43;6.17;;;1.13;;